Time,TemperatureF,DewpointF,PressureIn,WindDirection,WindDirectionDegrees,WindSpeedMPH,WindSpeedGustMPH,Humidity,HourlyPrecipIn,Conditions,Clouds,dailyrainin,SoftwareType,DateUTC
2013-05-28 00:00:00,56.5,36.0,30.06,NE,43,0.0,0.0,46,0.00,,,0.00,Wunderground v.1.15,2013-05-28 04:00:00,
2013-05-28 00:02:00,56.5,36.0,30.06,NE,43,0.0,0.0,46,0.00,,,0.00,Wunderground v.1.15,2013-05-28 04:02:00,
2013-05-28 00:06:00,56.4,35.9,30.06,NE,43,0.0,0.0,46,0.00,,,0.00,Wunderground v.1.15,2013-05-28 04:06:00,
2013-05-28 00:08:00,56.4,35.9,30.06,NE,43,0.0,0.0,46,0.00,,,0.00,Wunderground v.1.15,2013-05-28 04:08:00,
2013-05-28 00:14:00,56.3,36.8,30.06,NE,43,0.0,0.0,48,0.00,,,0.00,Wunderground v.1.15,2013-05-28 04:14:00,
2013-05-28 00:20:00,56.0,38.6,30.06,NE,43,0.0,0.0,52,0.00,,,0.00,Wunderground v.1.15,2013-05-28 04:20:00,
2013-05-28 00:26:00,55.8,39.9,30.06,NE,43,0.0,0.0,55,0.00,,,0.00,Wunderground v.1.15,2013-05-28 04:26:00,
2013-05-28 00:29:00,55.7,41.0,30.06,NE,43,0.0,0.0,58,0.00,,,0.00,weatherlink.com 1.10,2013-05-28 04:29:00,
2013-05-28 00:34:00,55.3,40.8,30.06,SE,128,0.0,0.0,58,0.00,,,0.00,Wunderground v.1.15,2013-05-28 04:34:00,
2013-05-28 00:38:00,55.0,40.9,30.06,SE,136,0.0,0.0,59,0.00,,,0.00,Wunderground v.1.15,2013-05-28 04:38:00,
2013-05-28 00:44:00,54.7,39.8,30.06,SE,136,0.0,0.0,57,0.00,,,0.00,Wunderground v.1.15,2013-05-28 04:44:00,
2013-05-28 00:50:00,54.6,40.1,30.06,SE,136,0.0,0.0,58,0.00,,,0.00,Wunderground v.1.15,2013-05-28 04:50:00,
2013-05-28 00:56:00,54.5,41.3,30.06,SE,136,0.0,0.0,61,0.00,,,0.00,Wunderground v.1.15,2013-05-28 04:56:00,
2013-05-28 01:02:00,54.3,42.0,30.06,SSE,153,0.0,0.0,63,0.00,,,0.00,Wunderground v.1.15,2013-05-28 05:02:00,
2013-05-28 01:08:00,53.9,42.0,30.06,SSE,153,0.0,0.0,64,0.00,,,0.00,Wunderground v.1.15,2013-05-28 05:08:00,
2013-05-28 01:14:00,53.6,42.0,30.05,SSE,153,0.0,0.0,64,0.00,,,0.00,weatherlink.com 1.10,2013-05-28 05:14:00,
2013-05-28 01:20:00,53.4,41.1,30.06,SE,140,0.0,0.0,63,0.00,,,0.00,Wunderground v.1.15,2013-05-28 05:20:00,
2013-05-28 01:26:00,53.5,40.4,30.05,SE,140,0.0,0.0,61,0.00,,,0.00,Wunderground v.1.15,2013-05-28 05:26:00,
2013-05-28 01:32:00,53.7,40.6,30.05,SE,140,0.0,0.0,61,0.00,,,0.00,Wunderground v.1.15,2013-05-28 05:32:00,
2013-05-28 01:38:00,53.7,40.6,30.05,SE,140,0.0,0.0,61,0.00,,,0.00,Wunderground v.1.15,2013-05-28 05:38:00,
2013-05-28 01:44:00,53.7,41.0,30.05,SE,140,0.0,0.0,62,0.00,,,0.00,Wunderground v.1.15,2013-05-28 05:44:00,
2013-05-28 01:50:00,53.6,40.9,30.04,SE,140,0.0,0.0,62,0.00,,,0.00,Wunderground v.1.15,2013-05-28 05:50:00,
2013-05-28 01:58:00,53.4,41.1,30.05,SSE,161,0.0,0.0,63,0.00,,,0.00,Wunderground v.1.15,2013-05-28 05:58:00,
2013-05-28 02:04:00,53.3,41.4,30.04,SSE,161,0.0,0.0,64,0.00,,,0.00,Wunderground v.1.15,2013-05-28 06:04:00,
2013-05-28 02:10:00,53.0,41.1,30.04,SSE,161,0.0,0.0,64,0.00,,,0.00,Wunderground v.1.15,2013-05-28 06:10:00,
2013-05-28 02:15:00,52.8,41.0,30.04,South,169,0.0,0.0,64,0.00,,,0.00,weatherlink.com 1.10,2013-05-28 06:15:00,
2013-05-28 02:20:00,52.6,40.8,30.04,South,169,0.0,0.0,64,0.00,,,0.00,Wunderground v.1.15,2013-05-28 06:20:00,
2013-05-28 02:26:00,52.5,40.7,30.04,South,169,0.0,0.0,64,0.00,,,0.00,Wunderground v.1.15,2013-05-28 06:26:00,
2013-05-28 02:32:00,52.4,40.6,30.05,South,174,0.0,0.0,64,0.00,,,0.00,Wunderground v.1.15,2013-05-28 06:32:00,
2013-05-28 02:38:00,52.5,40.7,30.05,South,182,2.0,6.0,64,0.00,,,0.00,Wunderground v.1.15,2013-05-28 06:38:00,
2013-05-28 02:44:00,52.5,40.0,30.04,SSE,153,3.0,7.0,63,0.00,,,0.00,weatherlink.com 1.10,2013-05-28 06:44:00,
2013-05-28 02:50:00,52.6,40.8,30.04,SSE,158,4.0,4.0,64,0.00,,,0.00,Wunderground v.1.15,2013-05-28 06:50:00,
2013-05-28 02:56:00,52.6,40.8,30.04,SSE,159,3.0,6.0,64,0.00,,,0.00,Wunderground v.1.15,2013-05-28 06:56:00,
2013-05-28 03:02:00,52.4,40.6,30.04,SE,136,3.0,7.0,64,0.00,,,0.00,Wunderground v.1.15,2013-05-28 07:02:00,
2013-05-28 03:08:00,52.4,39.8,30.04,SE,142,3.0,7.0,62,0.00,,,0.00,Wunderground v.1.15,2013-05-28 07:08:00,
2013-05-28 03:14:00,52.6,39.0,30.03,SE,128,1.0,6.0,60,0.00,,,0.00,weatherlink.com 1.10,2013-05-28 07:14:00,
2013-05-28 03:20:00,53.0,39.0,30.03,SE,142,2.0,2.0,59,0.00,,,0.00,Wunderground v.1.15,2013-05-28 07:20:00,
2013-05-28 03:26:00,53.2,38.8,30.03,SE,142,1.0,7.0,58,0.00,,,0.00,Wunderground v.1.15,2013-05-28 07:26:00,
2013-05-28 03:32:00,53.3,39.3,30.03,SE,140,0.0,7.0,59,0.00,,,0.00,Wunderground v.1.15,2013-05-28 07:32:00,
2013-05-28 03:38:00,53.3,40.6,30.03,SE,143,1.0,7.0,62,0.00,,,0.00,Wunderground v.1.15,2013-05-28 07:38:00,
2013-05-28 03:44:00,52.9,40.2,30.03,SE,143,2.0,7.0,62,0.00,,,0.00,Wunderground v.1.15,2013-05-28 07:44:00,
2013-05-28 03:50:00,52.8,40.1,30.03,SSE,156,3.0,3.0,62,0.00,,,0.00,Wunderground v.1.15,2013-05-28 07:50:00,
2013-05-28 03:56:00,52.8,40.5,30.03,SSE,156,3.0,7.0,63,0.00,,,0.00,Wunderground v.1.15,2013-05-28 07:56:00,
2013-05-28 04:02:00,52.7,40.5,30.02,SSE,155,3.0,5.0,63,0.00,,,0.00,Wunderground v.1.15,2013-05-28 08:02:00,
2013-05-28 04:08:00,52.6,39.9,30.02,SSE,153,3.0,5.0,62,0.00,,,0.00,Wunderground v.1.15,2013-05-28 08:08:00,
2013-05-28 04:14:00,52.7,40.0,30.02,SSE,151,4.0,6.0,62,0.00,,,0.00,weatherlink.com 1.10,2013-05-28 08:14:00,
2013-05-28 04:20:00,52.6,40.4,30.02,SSE,156,3.0,5.0,63,0.00,,,0.00,Wunderground v.1.15,2013-05-28 08:20:00,
2013-05-28 04:26:00,52.4,40.2,30.02,SSE,165,3.0,5.0,63,0.00,,,0.00,Wunderground v.1.15,2013-05-28 08:26:00,
2013-05-28 04:32:00,52.3,39.7,30.02,SE,143,3.0,5.0,62,0.00,,,0.00,Wunderground v.1.15,2013-05-28 08:32:00,
2013-05-28 04:38:00,52.4,38.9,30.02,SE,139,4.0,6.0,60,0.00,,,0.00,Wunderground v.1.15,2013-05-28 08:38:00,
2013-05-28 04:44:00,52.7,39.0,30.02,SE,136,6.0,8.0,59,0.00,,,0.00,weatherlink.com 1.10,2013-05-28 08:44:00,
2013-05-28 04:50:00,53.0,38.2,30.01,SE,145,4.0,5.0,57,0.00,,,0.00,Wunderground v.1.15,2013-05-28 08:50:00,
2013-05-28 04:56:00,53.2,38.8,30.01,SE,132,4.0,5.0,58,0.00,,,0.00,Wunderground v.1.15,2013-05-28 08:56:00,
2013-05-28 05:02:00,53.2,39.2,30.01,SE,137,4.0,9.0,59,0.00,,,0.00,Wunderground v.1.15,2013-05-28 09:02:00,
2013-05-28 05:08:00,53.2,38.4,30.01,SE,134,4.0,9.0,57,0.00,,,0.00,Wunderground v.1.15,2013-05-28 09:08:00,
2013-05-28 05:14:00,53.4,38.0,30.01,ESE,119,3.0,8.0,56,0.00,,,0.00,weatherlink.com 1.10,2013-05-28 09:14:00,
2013-05-28 05:20:00,53.6,38.7,30.01,SE,145,4.0,9.0,57,0.00,,,0.00,Wunderground v.1.15,2013-05-28 09:20:00,
2013-05-28 05:26:00,53.6,39.2,30.01,SE,141,4.0,9.0,58,0.00,,,0.00,Wunderground v.1.15,2013-05-28 09:26:00,
2013-05-28 05:31:00,53.5,39.0,30.01,SE,136,4.0,7.0,58,0.00,,,0.00,weatherlink.com 1.10,2013-05-28 09:31:00,
2013-05-28 05:38:00,53.5,38.6,30.01,SE,140,4.0,9.0,57,0.00,,,0.00,Wunderground v.1.15,2013-05-28 09:38:00,
2013-05-28 05:44:00,53.7,38.8,30.00,SE,132,2.0,9.0,57,0.00,,,0.00,Wunderground v.1.15,2013-05-28 09:44:00,
2013-05-28 05:50:00,53.9,39.9,30.00,SE,138,3.0,3.0,59,0.00,,,0.00,Wunderground v.1.15,2013-05-28 09:50:00,
2013-05-28 05:56:00,54.1,39.2,30.00,SE,141,3.0,9.0,57,0.00,,,0.00,Wunderground v.1.15,2013-05-28 09:56:00,
2013-05-28 06:02:00,54.2,39.3,30.00,SSE,147,2.0,8.0,57,0.00,,,0.00,Wunderground v.1.15,2013-05-28 10:02:00,
2013-05-28 06:08:00,54.2,39.3,30.00,SE,124,2.0,8.0,57,0.00,,,0.00,Wunderground v.1.15,2013-05-28 10:08:00,
2013-05-28 06:14:00,54.2,39.7,30.00,SE,135,2.0,8.0,58,0.00,,,0.00,Wunderground v.1.15,2013-05-28 10:14:00,
2013-05-28 06:20:00,54.3,39.8,29.99,SE,141,2.0,8.0,58,0.00,,,0.00,Wunderground v.1.15,2013-05-28 10:20:00,
2013-05-28 06:26:00,54.5,40.0,30.00,SE,130,3.0,8.0,58,0.00,,,0.00,Wunderground v.1.15,2013-05-28 10:26:00,
2013-05-28 06:32:00,54.7,40.2,30.00,SE,137,4.0,8.0,58,0.00,,,0.00,Wunderground v.1.15,2013-05-28 10:32:00,
2013-05-28 06:38:00,55.0,40.9,30.00,SE,142,4.0,8.0,59,0.00,,,0.00,Wunderground v.1.15,2013-05-28 10:38:00,
2013-05-28 06:44:00,55.1,41.5,30.00,SE,146,4.0,7.0,60,0.00,,,0.00,Wunderground v.1.15,2013-05-28 10:44:00,
2013-05-28 06:50:00,55.2,42.0,30.00,SSE,153,4.0,8.0,61,0.00,,,0.00,Wunderground v.1.15,2013-05-28 10:50:00,
2013-05-28 06:56:00,55.2,42.0,29.99,SSE,148,5.0,8.0,61,0.00,,,0.00,Wunderground v.1.15,2013-05-28 10:56:00,
2013-05-28 07:02:00,55.3,42.1,29.99,SSE,151,5.0,9.0,61,0.00,,,0.00,Wunderground v.1.15,2013-05-28 11:02:00,
2013-05-28 07:08:00,55.3,42.1,30.00,SSE,160,5.0,9.0,61,0.00,,,0.00,Wunderground v.1.15,2013-05-28 11:08:00,
2013-05-28 07:14:00,55.4,42.6,30.00,SSE,151,6.0,9.0,62,0.00,,,0.00,Wunderground v.1.15,2013-05-28 11:14:00,
2013-05-28 07:20:00,55.5,42.7,30.00,SE,146,6.0,9.0,62,0.00,,,0.00,Wunderground v.1.15,2013-05-28 11:20:00,
2013-05-28 07:26:00,55.6,42.8,30.00,SE,145,5.0,9.0,62,0.00,,,0.00,Wunderground v.1.15,2013-05-28 11:26:00,
2013-05-28 07:32:00,55.7,43.3,30.00,SSE,154,4.0,9.0,63,0.00,,,0.00,Wunderground v.1.15,2013-05-28 11:32:00,
2013-05-28 07:38:00,55.8,43.8,30.00,SSE,148,5.0,9.0,64,0.00,,,0.00,Wunderground v.1.15,2013-05-28 11:38:00,
2013-05-28 07:44:00,55.9,43.9,30.00,SE,146,5.0,9.0,64,0.00,,,0.00,Wunderground v.1.15,2013-05-28 11:44:00,
2013-05-28 07:50:00,56.0,44.0,30.00,SSE,148,5.0,11.0,64,0.00,,,0.00,Wunderground v.1.15,2013-05-28 11:50:00,
2013-05-28 07:56:00,56.1,44.1,30.00,SE,146,6.0,11.0,64,0.00,,,0.00,Wunderground v.1.15,2013-05-28 11:56:00,
2013-05-28 08:04:00,56.3,43.9,30.00,SSE,150,5.0,11.0,63,0.00,,,0.00,Wunderground v.1.15,2013-05-28 12:04:00,
2013-05-28 08:10:00,56.5,44.0,30.00,SE,146,5.0,11.0,63,0.00,,,0.00,Wunderground v.1.15,2013-05-28 12:10:00,
2013-05-28 08:15:00,56.6,44.0,30.00,SE,143,3.0,11.0,63,0.00,,,0.00,weatherlink.com 1.10,2013-05-28 12:15:00,
2013-05-28 08:22:00,56.7,45.1,30.00,SE,144,6.0,11.0,65,0.00,,,0.00,Wunderground v.1.15,2013-05-28 12:22:00,
2013-05-28 08:28:00,56.8,44.7,30.00,SE,139,6.0,11.0,64,0.00,,,0.00,Wunderground v.1.15,2013-05-28 12:28:00,
2013-05-28 08:34:00,56.9,45.3,29.99,SE,144,5.0,11.0,65,0.00,,,0.00,Wunderground v.1.15,2013-05-28 12:34:00,
2013-05-28 08:40:00,57.1,45.8,29.99,SSE,153,5.0,11.0,66,0.00,,,0.00,Wunderground v.1.15,2013-05-28 12:40:00,
2013-05-28 08:46:00,57.3,46.0,30.00,SSE,161,6.0,11.0,66,0.00,,,0.00,Wunderground v.1.15,2013-05-28 12:46:00,
2013-05-28 08:52:00,57.4,46.1,29.99,SSE,168,6.0,9.0,66,0.00,,,0.00,Wunderground v.1.15,2013-05-28 12:52:00,
2013-05-28 08:58:00,57.5,46.2,29.99,SSE,168,7.0,11.0,66,0.00,,,0.00,Wunderground v.1.15,2013-05-28 12:58:00,
2013-05-28 09:04:00,57.5,46.2,29.99,South,189,8.0,13.0,66,0.00,,,0.00,Wunderground v.1.15,2013-05-28 13:04:00,
2013-05-28 09:10:00,57.6,46.3,29.99,South,169,8.0,13.0,66,0.00,,,0.00,Wunderground v.1.15,2013-05-28 13:10:00,
2013-05-28 09:16:00,57.6,46.7,29.99,SSE,163,7.0,13.0,67,0.00,,,0.00,Wunderground v.1.15,2013-05-28 13:16:00,
2013-05-28 09:22:00,57.6,46.3,29.99,SSE,148,8.0,13.0,66,0.00,,,0.00,Wunderground v.1.15,2013-05-28 13:22:00,
2013-05-28 09:28:00,57.6,46.3,29.99,SSE,166,9.0,13.0,66,0.00,,,0.00,Wunderground v.1.15,2013-05-28 13:28:00,
2013-05-28 09:34:00,57.6,46.3,29.99,South,173,10.0,13.0,66,0.00,,,0.00,Wunderground v.1.15,2013-05-28 13:34:00,
2013-05-28 09:40:00,57.6,46.3,29.99,South,181,10.0,13.0,66,0.00,,,0.00,Wunderground v.1.15,2013-05-28 13:40:00,
2013-05-28 09:45:00,57.5,46.0,29.99,South,172,10.0,17.0,66,0.00,,,0.00,weatherlink.com 1.10,2013-05-28 13:45:00,
2013-05-28 09:52:00,57.6,46.7,29.99,SSW,192,10.0,13.0,67,0.00,,,0.00,Wunderground v.1.15,2013-05-28 13:52:00,
2013-05-28 09:58:00,57.3,47.2,29.99,SSW,199,10.0,13.0,69,0.00,,,0.00,Wunderground v.1.15,2013-05-28 13:58:00,
2013-05-28 10:04:00,56.7,47.4,29.99,SSW,196,10.0,17.0,71,0.00,,,0.00,Wunderground v.1.15,2013-05-28 14:04:00,
2013-05-28 10:10:00,56.2,48.0,29.99,South,180,10.0,17.0,74,0.00,,,0.00,Wunderground v.1.15,2013-05-28 14:10:00,
2013-05-28 10:16:00,55.8,48.3,29.99,South,188,9.0,17.0,76,0.00,,,0.00,Wunderground v.1.15,2013-05-28 14:16:00,
2013-05-28 10:22:00,55.3,48.6,29.99,South,179,10.0,17.0,78,0.00,,,0.00,Wunderground v.1.15,2013-05-28 14:22:00,
2013-05-28 10:28:00,54.9,48.8,30.00,SSW,202,9.0,17.0,80,0.00,,,0.00,Wunderground v.1.15,2013-05-28 14:28:00,
2013-05-28 10:34:00,54.6,49.2,30.00,South,186,9.0,17.0,82,0.00,,,0.00,Wunderground v.1.15,2013-05-28 14:34:00,
2013-05-28 10:40:00,54.2,49.1,30.00,SSW,192,10.0,17.0,83,0.00,,,0.01,Wunderground v.1.15,2013-05-28 14:40:00,
2013-05-28 10:46:00,53.9,49.5,30.00,South,180,11.0,17.0,85,0.00,,,0.01,Wunderground v.1.15,2013-05-28 14:46:00,
2013-05-28 10:52:00,53.7,49.9,30.00,South,177,10.0,17.0,87,0.05,,,0.02,Wunderground v.1.15,2013-05-28 14:52:00,
2013-05-28 10:58:00,53.6,50.1,30.00,SE,144,9.0,17.0,88,0.05,,,0.02,Wunderground v.1.15,2013-05-28 14:58:00,
2013-05-28 11:04:00,53.6,50.4,30.00,South,177,8.0,17.0,89,0.04,,,0.03,Wunderground v.1.15,2013-05-28 15:04:00,
2013-05-28 11:10:00,53.4,50.5,30.00,SE,144,8.0,17.0,90,0.04,,,0.03,Wunderground v.1.15,2013-05-28 15:10:00,
2013-05-28 11:16:00,53.3,50.7,30.00,SSE,155,8.0,17.0,91,0.08,,,0.04,Wunderground v.1.15,2013-05-28 15:16:00,
2013-05-28 11:22:00,53.2,50.9,30.00,SSE,150,8.0,17.0,92,0.06,,,0.05,Wunderground v.1.15,2013-05-28 15:22:00,
2013-05-28 11:28:00,53.2,50.9,30.00,SSE,155,8.0,17.0,92,0.06,,,0.05,Wunderground v.1.15,2013-05-28 15:28:00,
2013-05-28 11:34:00,53.1,51.1,30.00,SSE,150,7.0,17.0,93,0.07,,,0.06,Wunderground v.1.15,2013-05-28 15:34:00,
2013-05-28 11:40:00,53.1,51.1,30.00,SSE,150,6.0,17.0,93,0.07,,,0.07,Wunderground v.1.15,2013-05-28 15:40:00,
2013-05-28 11:46:00,53.2,51.5,30.00,SSE,148,6.0,17.0,94,0.07,,,0.08,Wunderground v.1.15,2013-05-28 15:46:00,
2013-05-28 11:52:00,53.2,51.5,30.00,South,169,6.0,17.0,94,0.08,,,0.08,Wunderground v.1.15,2013-05-28 15:52:00,
2013-05-28 11:58:00,53.4,52.0,30.00,SSE,153,5.0,17.0,95,0.06,,,0.09,Wunderground v.1.15,2013-05-28 15:58:00,
2013-05-28 12:04:00,53.5,52.1,30.00,SSE,150,5.0,14.0,95,0.09,,,0.10,Wunderground v.1.15,2013-05-28 16:04:00,
2013-05-28 12:10:00,53.7,52.3,29.99,SSE,147,6.0,6.0,95,0.07,,,0.10,Wunderground v.1.15,2013-05-28 16:10:00,
2013-05-28 12:16:00,53.8,52.7,30.00,SE,143,5.0,14.0,96,0.05,,,0.11,Wunderground v.1.15,2013-05-28 16:16:00,
2013-05-28 12:22:00,54.0,52.9,29.99,SSE,148,5.0,14.0,96,0.05,,,0.11,Wunderground v.1.15,2013-05-28 16:22:00,
2013-05-28 12:28:00,54.1,53.0,29.99,SSE,162,6.0,14.0,96,0.05,,,0.12,Wunderground v.1.15,2013-05-28 16:28:00,
2013-05-28 12:33:00,54.2,53.0,29.98,SE,145,7.0,14.0,96,0.06,,,0.12,weatherlink.com 1.10,2013-05-28 16:33:00,
2013-05-28 12:40:00,54.3,53.2,29.98,SE,140,6.0,14.0,96,0.04,,,0.12,Wunderground v.1.15,2013-05-28 16:40:00,
2013-05-28 12:46:00,54.4,53.3,29.98,SE,140,7.0,14.0,96,0.00,,,0.12,Wunderground v.1.15,2013-05-28 16:46:00,
2013-05-28 12:52:00,54.6,53.5,29.98,SE,142,6.0,14.0,96,0.00,,,0.12,Wunderground v.1.15,2013-05-28 16:52:00,
2013-05-28 12:58:00,54.6,53.5,29.98,SSE,149,6.0,14.0,96,0.00,,,0.12,Wunderground v.1.15,2013-05-28 16:58:00,
2013-05-28 13:03:00,54.7,54.0,29.98,ESE,123,4.0,12.0,96,0.03,,,0.13,weatherlink.com 1.10,2013-05-28 17:03:00,
2013-05-28 13:10:00,54.8,53.7,29.97,SE,132,6.0,15.0,96,0.00,,,0.13,Wunderground v.1.15,2013-05-28 17:10:00,
2013-05-28 13:16:00,55.0,54.2,29.97,South,173,7.0,15.0,97,0.00,,,0.13,Wunderground v.1.15,2013-05-28 17:16:00,
2013-05-28 13:22:00,55.3,54.5,29.98,SSE,165,7.0,15.0,97,0.00,,,0.14,Wunderground v.1.15,2013-05-28 17:22:00,
2013-05-28 13:28:00,55.6,54.8,29.98,SSE,150,7.0,15.0,97,0.00,,,0.14,Wunderground v.1.15,2013-05-28 17:28:00,
2013-05-28 13:34:00,56.0,55.2,29.98,South,182,7.0,15.0,97,0.00,,,0.14,Wunderground v.1.15,2013-05-28 17:34:00,
2013-05-28 13:40:00,56.4,55.6,29.98,SSE,150,7.0,15.0,97,0.00,,,0.14,Wunderground v.1.15,2013-05-28 17:40:00,
2013-05-28 13:46:00,56.9,56.1,29.97,SSE,155,6.0,15.0,97,0.00,,,0.14,Wunderground v.1.15,2013-05-28 17:46:00,
2013-05-28 13:52:00,57.4,56.3,29.97,SSE,161,8.0,15.0,96,0.00,,,0.14,Wunderground v.1.15,2013-05-28 17:52:00,
2013-05-28 13:58:00,57.8,56.7,29.97,South,188,11.0,17.0,96,0.00,,,0.14,Wunderground v.1.15,2013-05-28 17:58:00,
2013-05-28 14:04:00,58.3,56.6,29.97,South,178,13.0,19.0,94,0.00,,,0.14,Wunderground v.1.15,2013-05-28 18:04:00,
2013-05-28 14:10:00,59.0,57.0,29.97,South,188,11.0,11.0,93,0.00,,,0.14,Wunderground v.1.15,2013-05-28 18:10:00,
2013-05-28 14:16:00,59.2,56.6,29.97,South,185,11.0,19.0,91,0.00,,,0.14,Wunderground v.1.15,2013-05-28 18:16:00,
2013-05-28 14:22:00,59.4,56.8,29.97,SSE,168,12.0,19.0,91,0.00,,,0.14,Wunderground v.1.15,2013-05-28 18:22:00,
2013-05-28 14:28:00,59.6,56.7,29.96,SSW,193,12.0,19.0,90,0.00,,,0.14,Wunderground v.1.15,2013-05-28 18:28:00,
2013-05-28 14:34:00,59.8,56.9,29.96,South,172,10.0,19.0,90,0.00,,,0.14,Wunderground v.1.15,2013-05-28 18:34:00,
2013-05-28 14:40:00,59.8,56.6,29.96,SSW,192,10.0,19.0,89,0.00,,,0.14,Wunderground v.1.15,2013-05-28 18:40:00,
2013-05-28 14:46:00,59.9,57.0,29.95,South,183,10.0,19.0,90,0.00,,,0.14,Wunderground v.1.15,2013-05-28 18:46:00,
2013-05-28 14:52:00,60.1,56.8,29.95,South,169,9.0,19.0,89,0.00,,,0.14,Wunderground v.1.15,2013-05-28 18:52:00,
2013-05-28 14:58:00,60.2,56.6,29.95,South,179,9.0,19.0,88,0.00,,,0.14,Wunderground v.1.15,2013-05-28 18:58:00,
2013-05-28 15:04:00,60.4,57.1,29.95,SSE,148,9.0,22.0,89,0.00,,,0.14,Wunderground v.1.15,2013-05-28 19:04:00,
2013-05-28 15:10:00,60.7,57.4,29.95,South,187,9.0,22.0,89,0.00,,,0.14,Wunderground v.1.15,2013-05-28 19:10:00,
2013-05-28 15:16:00,60.6,56.7,29.95,South,186,9.0,22.0,87,0.00,,,0.14,Wunderground v.1.15,2013-05-28 19:16:00,
2013-05-28 15:24:00,60.3,56.1,29.95,South,190,10.0,22.0,86,0.00,,,0.14,Wunderground v.1.15,2013-05-28 19:24:00,
2013-05-28 15:30:00,60.1,56.2,29.95,SSW,192,10.0,10.0,87,0.00,,,0.14,Wunderground v.1.15,2013-05-28 19:30:00,
2013-05-28 15:36:00,60.5,56.6,29.95,SSE,165,10.0,22.0,87,0.00,,,0.14,Wunderground v.1.15,2013-05-28 19:36:00,
2013-05-28 15:42:00,60.7,56.8,29.95,South,185,12.0,22.0,87,0.00,,,0.14,Wunderground v.1.15,2013-05-28 19:42:00,
2013-05-28 15:48:00,60.8,56.6,29.95,South,190,12.0,22.0,86,0.00,,,0.14,Wunderground v.1.15,2013-05-28 19:48:00,
2013-05-28 15:54:00,60.4,56.2,29.95,SSE,163,12.0,22.0,86,0.00,,,0.14,Wunderground v.1.15,2013-05-28 19:54:00,
2013-05-28 16:00:00,60.6,56.7,29.95,SSE,163,10.0,10.0,87,0.00,,,0.14,Wunderground v.1.15,2013-05-28 20:00:00,
2013-05-28 16:06:00,61.3,57.1,29.95,South,176,9.0,18.0,86,0.00,,,0.14,Wunderground v.1.15,2013-05-28 20:06:00,
2013-05-28 16:12:00,61.7,57.1,29.95,South,183,10.0,18.0,85,0.00,,,0.14,Wunderground v.1.15,2013-05-28 20:12:00,
2013-05-28 16:18:00,61.1,56.2,29.95,South,169,10.0,18.0,84,0.00,,,0.14,Wunderground v.1.15,2013-05-28 20:18:00,
2013-05-28 16:24:00,60.3,55.8,29.95,SSE,167,11.0,18.0,85,0.00,,,0.14,Wunderground v.1.15,2013-05-28 20:24:00,
2013-05-28 16:30:00,59.8,55.9,29.95,South,179,10.0,18.0,87,0.00,,,0.14,Wunderground v.1.15,2013-05-28 20:30:00,
2013-05-28 16:36:00,59.5,55.6,29.95,SSE,155,9.0,18.0,87,0.00,,,0.14,Wunderground v.1.15,2013-05-28 20:36:00,
2013-05-28 16:42:00,59.3,55.7,29.95,SSW,196,8.0,15.0,88,0.00,,,0.14,Wunderground v.1.15,2013-05-28 20:42:00,
2013-05-28 16:48:00,59.2,55.6,29.94,SSW,192,9.0,18.0,88,0.00,,,0.14,Wunderground v.1.15,2013-05-28 20:48:00,
2013-05-28 16:54:00,59.3,56.1,29.94,South,169,11.0,18.0,89,0.00,,,0.14,Wunderground v.1.15,2013-05-28 20:54:00,
2013-05-28 17:00:00,59.3,55.7,29.95,SSW,198,11.0,11.0,88,0.00,,,0.14,Wunderground v.1.15,2013-05-28 21:00:00,
2013-05-28 17:06:00,59.0,56.0,29.95,SSW,204,13.0,17.0,88,0.00,,,0.14,weatherlink.com 1.10,2013-05-28 21:06:00,
2013-05-28 17:12:00,58.9,55.7,29.95,South,179,10.0,17.0,89,0.00,,,0.14,Wunderground v.1.15,2013-05-28 21:12:00,
2013-05-28 17:18:00,59.1,55.9,29.94,SSE,157,9.0,17.0,89,0.00,,,0.14,Wunderground v.1.15,2013-05-28 21:18:00,
2013-05-28 17:24:00,59.3,56.4,29.94,South,173,9.0,17.0,90,0.00,,,0.14,Wunderground v.1.15,2013-05-28 21:24:00,
2013-05-28 17:30:00,59.4,56.2,29.93,SSE,167,8.0,8.0,89,0.00,,,0.14,Wunderground v.1.15,2013-05-28 21:30:00,
2013-05-28 17:36:00,59.2,56.0,29.93,South,182,8.0,17.0,89,0.00,,,0.14,Wunderground v.1.15,2013-05-28 21:36:00,
2013-05-28 17:42:00,59.0,55.8,29.93,SSW,199,10.0,17.0,89,0.00,,,0.14,Wunderground v.1.15,2013-05-28 21:42:00,
2013-05-28 17:48:00,58.7,55.5,29.92,South,170,9.0,17.0,89,0.00,,,0.14,Wunderground v.1.15,2013-05-28 21:48:00,
2013-05-28 17:54:00,58.5,55.6,29.92,SSE,159,9.0,17.0,90,0.00,,,0.14,Wunderground v.1.15,2013-05-28 21:54:00,
2013-05-28 18:00:00,58.4,55.5,29.93,South,180,10.0,10.0,90,0.00,,,0.14,Wunderground v.1.15,2013-05-28 22:00:00,
2013-05-28 18:06:00,58.2,55.3,29.93,SSW,205,10.0,18.0,90,0.00,,,0.14,Wunderground v.1.15,2013-05-28 22:06:00,
2013-05-28 18:12:00,57.9,55.3,29.93,SSW,196,9.0,18.0,91,0.00,,,0.14,Wunderground v.1.15,2013-05-28 22:12:00,
2013-05-28 18:18:00,57.9,55.6,29.93,South,174,9.0,18.0,92,0.00,,,0.14,Wunderground v.1.15,2013-05-28 22:18:00,
2013-05-28 18:24:00,57.8,55.8,29.92,South,184,9.0,18.0,93,0.00,,,0.14,Wunderground v.1.15,2013-05-28 22:24:00,
2013-05-28 18:32:00,57.6,55.6,29.92,South,187,10.0,18.0,93,0.00,,,0.14,Wunderground v.1.15,2013-05-28 22:32:00,
2013-05-28 18:38:00,57.4,55.7,29.92,South,185,9.0,18.0,94,0.00,,,0.14,Wunderground v.1.15,2013-05-28 22:38:00,
2013-05-28 18:44:00,57.4,55.7,29.91,South,173,9.0,18.0,94,0.00,,,0.14,Wunderground v.1.15,2013-05-28 22:44:00,
2013-05-28 18:50:00,57.4,56.0,29.90,South,177,8.0,18.0,95,0.00,,,0.15,Wunderground v.1.15,2013-05-28 22:50:00,
2013-05-28 18:56:00,57.2,55.8,29.90,SSE,155,8.0,18.0,95,0.00,,,0.15,Wunderground v.1.15,2013-05-28 22:56:00,
2013-05-28 19:02:00,57.1,55.7,29.90,South,188,7.0,15.0,95,0.00,,,0.15,Wunderground v.1.15,2013-05-28 23:02:00,
2013-05-28 19:08:00,57.1,55.7,29.90,South,172,8.0,15.0,95,0.00,,,0.15,Wunderground v.1.15,2013-05-28 23:08:00,
2013-05-28 19:14:00,56.9,55.5,29.90,SSE,154,9.0,15.0,95,0.00,,,0.15,Wunderground v.1.15,2013-05-28 23:14:00,
2013-05-28 19:20:00,56.9,55.8,29.91,South,187,9.0,15.0,96,0.00,,,0.15,Wunderground v.1.15,2013-05-28 23:20:00,
2013-05-28 19:28:00,56.8,55.7,29.91,SSE,153,9.0,15.0,96,0.00,,,0.15,Wunderground v.1.15,2013-05-28 23:28:00,
2013-05-28 19:34:00,56.7,55.6,29.91,SSE,163,9.0,15.0,96,0.00,,,0.15,Wunderground v.1.15,2013-05-28 23:34:00,
2013-05-28 19:40:00,56.8,55.7,29.91,SSE,150,8.0,8.0,96,0.00,,,0.15,Wunderground v.1.15,2013-05-28 23:40:00,
2013-05-28 19:46:00,56.7,55.6,29.91,SSE,162,7.0,15.0,96,0.00,,,0.15,Wunderground v.1.15,2013-05-28 23:46:00,
2013-05-28 19:52:00,56.7,55.9,29.91,South,184,6.0,15.0,97,0.00,,,0.15,Wunderground v.1.15,2013-05-28 23:52:00,
2013-05-28 19:58:00,56.7,55.6,29.91,South,169,7.0,15.0,96,0.12,,,0.17,Wunderground v.1.15,2013-05-28 23:58:00,
2013-05-28 20:04:00,56.6,55.8,29.90,South,173,8.0,15.0,97,0.26,,,0.20,Wunderground v.1.15,2013-05-29 00:04:00,
2013-05-28 20:10:00,56.6,55.8,29.90,SSE,160,7.0,15.0,97,0.32,,,0.23,Wunderground v.1.15,2013-05-29 00:10:00,
2013-05-28 20:16:00,56.5,55.7,29.90,SSE,159,7.0,15.0,97,0.19,,,0.25,Wunderground v.1.15,2013-05-29 00:16:00,
2013-05-28 20:22:00,56.5,55.7,29.91,South,181,7.0,15.0,97,0.42,,,0.28,Wunderground v.1.15,2013-05-29 00:22:00,
2013-05-28 20:28:00,56.5,55.7,29.91,South,184,7.0,15.0,97,0.19,,,0.32,Wunderground v.1.15,2013-05-29 00:28:00,
2013-05-28 20:34:00,56.5,55.9,29.91,South,175,8.0,15.0,98,0.09,,,0.32,Wunderground v.1.15,2013-05-29 00:34:00,
2013-05-28 20:40:00,56.5,55.9,29.91,South,171,8.0,15.0,98,0.05,,,0.32,Wunderground v.1.15,2013-05-29 00:40:00,
2013-05-28 20:46:00,56.4,55.8,29.90,SSE,153,7.0,15.0,98,0.00,,,0.32,Wunderground v.1.15,2013-05-29 00:46:00,
2013-05-28 20:52:00,56.5,55.9,29.90,SSE,153,7.0,15.0,98,0.00,,,0.32,Wunderground v.1.15,2013-05-29 00:52:00,
2013-05-28 20:58:00,56.5,55.9,29.89,SE,135,8.0,15.0,98,0.00,,,0.32,Wunderground v.1.15,2013-05-29 00:58:00,
2013-05-28 21:04:00,56.5,55.9,29.89,SSE,166,8.0,15.0,98,0.00,,,0.32,Wunderground v.1.15,2013-05-29 01:04:00,
2013-05-28 21:09:00,56.5,56.0,29.90,South,169,9.0,13.0,98,0.10,,,0.32,weatherlink.com 1.10,2013-05-29 01:09:00,
2013-05-28 21:14:00,56.5,55.9,29.90,South,174,8.0,15.0,98,0.00,,,0.32,Wunderground v.1.15,2013-05-29 01:14:00,
2013-05-28 21:20:00,56.6,56.0,29.90,SSE,153,9.0,15.0,98,0.00,,,0.32,Wunderground v.1.15,2013-05-29 01:20:00,
2013-05-28 21:26:00,56.6,56.0,29.90,SSE,160,8.0,15.0,98,0.00,,,0.32,Wunderground v.1.15,2013-05-29 01:26:00,
2013-05-28 21:32:00,56.6,56.0,29.89,SSE,152,8.0,9.0,98,0.00,,,0.32,Wunderground v.1.15,2013-05-29 01:32:00,
2013-05-28 21:38:00,56.7,56.1,29.90,SSE,160,8.0,15.0,98,0.00,,,0.32,Wunderground v.1.15,2013-05-29 01:38:00,
2013-05-28 21:44:00,56.7,56.4,29.90,SSE,159,8.0,15.0,99,0.00,,,0.32,Wunderground v.1.15,2013-05-29 01:44:00,
2013-05-28 21:50:00,56.8,56.5,29.91,South,171,8.0,8.0,99,0.00,,,0.32,Wunderground v.1.15,2013-05-29 01:50:00,
2013-05-28 21:56:00,56.8,56.5,29.92,SSW,208,9.0,15.0,99,0.00,,,0.33,Wunderground v.1.15,2013-05-29 01:56:00,
2013-05-28 22:02:00,56.8,56.5,29.91,SSW,192,8.0,8.0,99,0.52,,,0.38,Wunderground v.1.15,2013-05-29 02:02:00,
2013-05-28 22:08:00,56.9,56.6,29.90,SSE,149,8.0,18.0,99,0.55,,,0.45,Wunderground v.1.15,2013-05-29 02:08:00,
2013-05-28 22:14:00,56.8,56.5,29.91,SSE,159,6.0,18.0,99,0.10,,,0.46,Wunderground v.1.15,2013-05-29 02:14:00,
2013-05-28 22:20:00,56.9,56.6,29.91,SSE,163,6.0,18.0,99,0.05,,,0.46,Wunderground v.1.15,2013-05-29 02:20:00,
2013-05-28 22:26:00,56.9,56.6,29.91,South,186,6.0,18.0,99,1.14,,,0.56,Wunderground v.1.15,2013-05-29 02:26:00,
2013-05-28 22:32:00,56.9,56.6,29.91,South,188,11.0,18.0,99,0.66,,,0.66,Wunderground v.1.15,2013-05-29 02:32:00,
2013-05-28 22:38:00,56.9,56.6,29.91,SSE,154,13.0,18.0,99,0.19,,,0.68,Wunderground v.1.15,2013-05-29 02:38:00,
2013-05-28 22:44:00,56.9,56.6,29.92,SSE,165,10.0,18.0,99,0.07,,,0.68,Wunderground v.1.15,2013-05-29 02:44:00,
2013-05-28 22:50:00,56.9,56.6,29.93,SW,215,7.0,18.0,99,0.23,,,0.70,Wunderground v.1.15,2013-05-29 02:50:00,
2013-05-28 22:56:00,56.9,56.6,29.93,South,184,4.0,18.0,99,0.08,,,0.70,Wunderground v.1.15,2013-05-29 02:56:00,
2013-05-28 23:02:00,57.0,56.7,29.91,SSE,166,4.0,20.0,99,0.13,,,0.72,Wunderground v.1.15,2013-05-29 03:02:00,
2013-05-28 23:08:00,56.9,56.6,29.91,SE,138,6.0,20.0,99,0.11,,,0.73,Wunderground v.1.15,2013-05-29 03:08:00,
2013-05-28 23:14:00,57.0,56.7,29.90,SE,143,6.0,20.0,99,0.15,,,0.74,Wunderground v.1.15,2013-05-29 03:14:00,
2013-05-28 23:20:00,57.0,56.7,29.90,SSE,154,6.0,20.0,99,0.10,,,0.75,Wunderground v.1.15,2013-05-29 03:20:00,
2013-05-28 23:26:00,57.0,56.7,29.89,SE,140,7.0,20.0,99,0.10,,,0.76,Wunderground v.1.15,2013-05-29 03:26:00,
2013-05-28 23:32:00,57.0,56.7,29.88,SE,146,9.0,20.0,99,0.06,,,0.76,Wunderground v.1.15,2013-05-29 03:32:00,
2013-05-28 23:38:00,57.0,56.7,29.86,South,184,13.0,21.0,99,0.04,,,0.77,Wunderground v.1.15,2013-05-29 03:38:00,
2013-05-28 23:44:00,57.0,56.7,29.86,South,180,16.0,20.0,99,0.04,,,0.77,Wunderground v.1.15,2013-05-29 03:44:00,
2013-05-28 23:50:00,57.0,56.7,29.86,South,174,15.0,15.0,99,0.05,,,0.78,Wunderground v.1.15,2013-05-29 03:50:00,
2013-05-28 23:56:00,57.1,56.8,29.86,South,171,15.0,20.0,99,0.05,,,0.78,Wunderground v.1.15,2013-05-29 03:56:00,